Latest Weather Observations for Ceduna

IDS60801

Issued at 7:05 am CDT Friday 28 November 2014 (issued every 30 minutes, with the page automatically refreshed every 10 minutes)

About weather observations | Map of weather stations | Latest weather observations for SA | Other Formats
Station Details ID: 018012 Name: CEDUNA AMO Lat: -32.13 Lon: 133.70 Height: 15.3 m
Data from the previous 72 hours. | See also: Recent months at Ceduna
Date/Time
CDT
Temp
°C
App
Temp
°C
Dew
Point
Rel
Hum
%
Delta-T
°C
Wind Press
QNH
hPa
Press
MSL
hPa
Rain
since 9 am
mm
Dir
 
Spd
km/h
Gust
km/h
Spd
kts
Gust
kts
28/07:00am 15.7 14.3 7.4 57 4.1 ESE 4 6 2 3 1015.6 1015.6 0.0
28/06:30am 15.4 12.6 6.8 56 4.2 ESE 11 11 6 6 1015.3 1015.3 0.0
28/06:00am 15.5 13.1 6.9 56 4.2 SE 9 11 5 6 1015.3 1015.3 0.0
28/05:30am 15.8 13.9 7.6 58 4.1 SE 7 9 4 5 1015.0 1015.0 0.0
28/05:00am 15.7 12.9 7.0 56 4.3 ESE 11 13 6 7 1014.8 1014.8 0.0
28/04:30am 15.6 12.9 7.3 57 4.1 ESE 11 11 6 6 1014.9 1014.9 0.0
28/04:00am 17.0 12.7 7.2 52 4.9 E 19 20 10 11 1014.8 1014.8 0.0
28/03:30am 17.7 13.2 7.1 50 5.3 ESE 20 24 11 13 1014.9 1014.9 0.0
28/03:00am 18.0 13.8 7.3 49 5.4 E 19 20 10 11 1015.1 1015.1 0.0
28/02:30am 18.3 15.5 6.9 47 5.7 E 11 15 6 8 1015.5 1015.5 0.0
28/02:00am 18.9 14.8 6.4 44 6.2 ESE 17 22 9 12 1015.7 1015.7 0.0
28/01:30am 19.7 15.1 6.3 41 6.7 SE 20 24 11 13 1015.9 1015.9 0.0
28/01:00am 19.8 15.5 7.7 45 6.2 SE 20 24 11 13 1016.0 1016.0 0.0
28/12:30am 19.8 16.1 9.6 51 5.4 SE 19 22 10 12 1016.4 1016.4 0.0
 
Date/Time
CDT
Temp
°C
App
Temp
°C
Dew
Point
Rel
Hum
%
Delta-T
°C
Wind Press
QNH
hPa
Press
MSL
hPa
Rain
since 9 am
mm
Dir
 
Spd
km/h
Gust
km/h
Spd
kts
Gust
kts
27/11:30pm 20.4 17.4 12.0 58 4.7 SE 19 24 10 13 1017.1 1017.1 0.0
27/11:00pm 20.4 18.6 13.2 63 4.1 SE 15 20 8 11 1017.3 1017.3 0.0
27/10:30pm 20.7 18.4 12.9 61 4.4 SSE 17 22 9 12 1017.3 1017.3 0.0
27/10:00pm 21.3 18.3 12.6 57 4.9 SE 20 24 11 13 1017.3 1017.3 0.0
27/09:30pm 20.4 19.3 14.4 68 3.5 SSE 13 19 7 10 1017.3 1017.3 0.0
27/09:00pm 21.0 20.0 15.6 71 3.2 S 15 19 8 10 1017.2 1017.2 0.0
27/08:30pm 21.4 19.6 15.5 69 3.5 S 19 24 10 13 1017.0 1017.0 0.0
27/08:00pm 22.1 19.2 15.0 64 4.2 SSE 24 30 13 16 1016.7 1016.7 0.0
27/07:30pm 23.2 19.4 14.6 58 5.1 SSE 28 35 15 19 1016.6 1016.6 0.0
27/07:00pm 23.9 19.5 14.2 54 5.7 SSE 30 39 16 21 1016.3 1016.3 0.0
27/06:30pm 25.1 19.1 12.2 44 7.4 SSE 35 52 19 28 1016.2 1016.2 0.0
27/05:30pm 26.0 19.7 11.1 39 8.4 SSE 35 46 19 25 1016.6 1016.6 0.0
27/05:00pm 26.5 21.0 12.3 41 8.2 SSE 33 41 18 22 1016.8 1016.8 0.0
27/04:30pm 25.9 20.5 12.1 42 7.9 S 32 41 17 22 1017.1 1017.1 0.0
27/04:00pm 26.6 21.7 12.6 42 8.1 S 30 37 16 20 1017.2 1017.2 0.0
27/03:30pm 25.6 20.4 12.8 45 7.4 S 32 37 17 20 1017.4 1017.4 0.0
27/03:00pm 26.4 21.9 12.6 42 8.0 S 28 35 15 19 1017.8 1017.8 0.0
27/02:30pm 26.7 22.0 11.9 39 8.5 S 28 33 15 18 1018.1 1018.1 0.0
27/02:00pm 26.9 22.9 11.9 39 8.6 S 24 32 13 17 1018.2 1018.2 0.0
27/01:30pm 27.4 23.5 10.7 35 9.4 S 22 30 12 16 1018.6 1018.6 0.0
27/01:00pm 25.8 22.0 12.4 43 7.7 SSW 24 30 13 16 1018.8 1018.8 0.0
27/12:30pm 25.9 23.1 13.2 45 7.4 SSW 20 26 11 14 1019.1 1019.1 0.0
27/12:00pm 24.1 20.7 12.6 48 6.6 SW 22 28 12 15 1019.4 1019.4 0.0
27/11:30am 23.2 19.3 12.0 49 6.3 SW 24 28 13 15 1019.7 1019.7 0.0
27/11:00am 26.8 24.2 6.2 27 10.7 ESE 9 17 5 9 1019.8 1019.8 0.0
27/10:30am 25.0 22.2 7.0 31 9.4 ENE 11 19 6 10 1020.2 1020.2 0.0
27/10:00am 23.1 20.1 7.8 37 8.0 ENE 13 22 7 12 1020.5 1020.5 0.0
27/09:30am 20.8 18.4 8.6 45 6.4 E 11 17 6 9 1020.7 1020.7 0.0
27/09:00am 20.0 17.0 9.2 49 5.7 ESE 15 20 8 11 1020.8 1020.8 0.0
27/08:30am 18.1 15.0 10.2 60 4.2 ESE 17 20 9 11 1020.7 1020.7 0.0
27/08:00am 16.0 13.2 11.3 73 2.5 ESE 17 20 9 11 1020.6 1020.6 0.0
27/07:30am 13.9 11.9 11.5 85 1.3 ESE 13 17 7 9 1020.4 1020.4 0.0
27/07:00am 12.4 10.2 10.7 89 0.9 ESE 13 13 7 7 1020.4 1020.4 0.0
27/06:30am 12.1 9.8 10.5 90 0.8 SE 13 15 7 8 1020.1 1020.1 0.0
27/06:00am 12.2 9.9 10.5 89 0.9 SE 13 15 7 8 1019.9 1019.9 0.0
27/05:30am 12.7 10.5 10.8 88 1.0 ESE 13 17 7 9 1019.5 1019.5 0.0
27/05:00am 13.1 10.1 10.8 86 1.2 ESE 17 20 9 11 1019.3 1019.3 0.0
27/04:30am 13.6 10.6 10.7 82 1.5 ESE 17 20 9 11 1019.1 1019.1 0.0
27/04:00am 13.6 10.6 10.5 81 1.6 ESE 17 20 9 11 1019.0 1019.0 0.0
27/03:30am 13.5 10.2 9.4 76 2.1 ESE 17 22 9 12 1018.9 1018.9 0.0
27/03:00am 13.7 10.2 8.9 73 2.4 ESE 17 20 9 11 1019.1 1019.1 0.0
27/02:30am 14.3 10.4 8.7 69 2.8 ESE 19 24 10 13 1019.1 1019.1 0.0
27/02:00am 14.7 10.9 9.0 68 2.9 SE 19 24 10 13 1019.4 1019.4 0.0
27/01:30am 15.4 11.7 10.0 70 2.8 SE 20 24 11 13 1019.7 1019.7 0.0
27/01:00am 16.3 13.1 11.9 75 2.4 SE 20 24 11 13 1020.1 1020.1 0.0
27/12:30am 16.7 14.1 13.3 80 1.9 SE 19 24 10 13 1020.5 1020.5 0.0
27/12:00am 16.7 14.1 13.3 80 1.9 SE 19 24 10 13 1020.5 1020.5 0.0
 
Date/Time
CDT
Temp
°C
App
Temp
°C
Dew
Point
Rel
Hum
%
Delta-T
°C
Wind Press
QNH
hPa
Press
MSL
hPa
Rain
since 9 am
mm
Dir
 
Spd
km/h
Gust
km/h
Spd
kts
Gust
kts
26/11:30pm 16.1 13.7 12.6 80 1.9 SE 17 19 9 10 1020.7 1020.7 0.0
26/11:00pm 16.6 14.8 13.4 81 1.8 SSE 15 19 8 10 1020.7 1020.7 0.0
26/10:30pm 17.3 14.5 13.2 77 2.3 SSE 20 28 11 15 1020.5 1020.5 0.0
26/10:00pm 17.3 14.2 13.4 78 2.2 SSE 22 30 12 16 1020.1 1020.1 0.0
26/09:30pm 17.3 14.6 13.4 78 2.2 SSE 20 28 11 15 1020.3 1020.3 0.0
26/09:00pm 17.6 14.0 12.9 74 2.6 SSE 24 33 13 18 1020.1 1020.1 0.0
26/08:30pm 17.9 14.4 13.3 74 2.6 SSE 24 33 13 18 1020.0 1020.0 0.0
26/08:00pm 18.3 13.9 12.9 71 3.0 S 28 37 15 20 1019.8 1019.8 0.0
26/07:30pm 18.7 13.2 12.6 67 3.4 S 33 43 18 23 1019.8 1019.8 0.0
26/07:00pm 18.9 12.1 12.0 64 3.8 S 39 52 21 28 1019.7 1019.7 0.0
26/06:30pm 19.6 13.4 11.4 59 4.5 S 35 48 19 26 1019.9 1019.9 0.0
26/06:00pm 20.3 13.8 11.6 57 4.8 S 37 50 20 27 1019.8 1019.8 0.0
26/05:30pm 19.8 12.8 11.4 58 4.6 S 39 50 21 27 1019.8 1019.8 0.0
26/05:00pm 20.3 13.6 12.2 59 4.5 S 39 48 21 26 1019.9 1019.9 0.0
26/04:30pm 20.6 14.1 11.6 56 5.0 S 37 46 20 25 1020.2 1020.2 0.0
26/04:00pm 21.1 14.1 11.1 52 5.5 S 39 48 21 26 1020.2 1020.2 0.0
26/03:30pm 21.9 15.3 11.5 51 5.8 S 37 48 20 26 1020.3 1020.3 0.0
26/03:00pm 21.6 14.6 11.1 51 5.8 S 39 46 21 25 1020.5 1020.5 0.0
26/02:30pm 21.3 14.6 10.9 51 5.7 S 37 46 20 25 1020.7 1020.7 0.0
26/02:00pm 21.7 15.3 10.7 49 6.0 S 35 44 19 24 1021.1 1021.1 0.0
26/01:30pm 22.1 16.3 10.8 48 6.2 S 32 43 17 23 1021.4 1021.4 0.0
26/01:00pm 22.1 16.2 10.4 47 6.4 S 32 41 17 22 1021.4 1021.4 0.0
26/12:30pm 22.3 16.6 9.7 44 6.8 S 30 39 16 21 1021.8 1021.8 0.0
26/12:00pm 22.2 17.6 9.5 44 6.8 S 24 33 13 18 1022.2 1022.2 0.0
26/11:30am 21.0 16.2 8.8 45 6.4 S 24 35 13 19 1022.5 1022.5 0.0
26/11:00am 20.9 16.2 9.2 47 6.2 S 24 32 13 17 1022.7 1022.7 0.0
26/10:30am 20.6 16.7 7.3 42 6.8 SE 17 26 9 14 1022.8 1022.8 0.0
26/10:00am 19.9 15.5 7.3 44 6.4 SE 20 30 11 16 1022.7 1022.7 0.0
26/09:30am 18.4 14.1 8.0 50 5.3 SE 20 30 11 16 1022.7 1022.7 0.0
26/09:00am 17.6 12.6 7.9 53 4.9 ESE 24 32 13 17 1022.8 1022.8 0.0
26/08:30am 16.4 11.4 8.1 58 4.2 SE 24 32 13 17 1022.7 1022.7 0.0
26/08:00am 15.5 10.5 8.1 61 3.7 ESE 24 32 13 17 1022.7 1022.7 0.0
26/07:30am 13.8 9.5 7.9 67 2.9 SE 20 26 11 14 1022.4 1022.4 0.0
26/07:00am 12.3 8.1 7.6 73 2.3 SE 19 24 10 13 1022.0 1022.0 0.0
26/06:30am 11.4 7.6 7.4 76 1.9 SE 17 20 9 11 1021.9 1021.9 0.0
26/06:00am 11.3 7.6 7.8 79 1.7 SE 17 19 9 10 1021.6 1021.6 0.0
26/05:30am 11.4 7.6 7.7 78 1.8 ESE 17 20 9 11 1021.4 1021.4 0.0
26/05:00am 11.6 8.2 7.7 77 1.9 SE 15 19 8 10 1021.1 1021.1 0.0
26/04:30am 12.1 8.7 7.8 75 2.1 SE 15 20 8 11 1020.8 1020.8 0.0
26/04:00am 12.1 8.8 8.2 77 1.9 SE 15 19 8 10 1020.9 1020.9 0.0
26/03:30am 12.0 9.3 9.0 82 1.5 SE 13 17 7 9 1020.9 1020.9 0.0
26/03:00am 12.4 10.2 9.2 81 1.6 SE 11 15 6 8 1020.9 1020.9 0.0
26/02:30am 13.7 10.5 9.8 77 2.0 SE 17 20 9 11 1021.0 1021.0 0.0
26/02:00am 13.8 11.0 10.1 78 1.9 SE 15 19 8 10 1021.4 1021.4 0.0
26/01:30am 13.6 11.2 9.9 78 1.9 SE 13 17 7 9 1021.7 1021.7 0.0
26/01:00am 15.3 11.8 10.1 71 2.7 SSE 19 24 10 13 1022.1 1022.1 0.0
26/12:30am 15.4 12.2 9.8 69 2.9 SSE 17 24 9 13 1022.4 1022.4 0.0
26/12:00am 15.5 11.8 9.3 66 3.2 SSE 19 28 10 15 1022.5 1022.5 0.0
 
Date/Time
CDT
Temp
°C
App
Temp
°C
Dew
Point
Rel
Hum
%
Delta-T
°C
Wind Press
QNH
hPa
Press
MSL
hPa
Rain
since 9 am
mm
Dir
 
Spd
km/h
Gust
km/h
Spd
kts
Gust
kts
25/11:30pm 15.8 11.9 9.4 65 3.3 SSE 20 28 11 15 1022.6 1022.6 0.0
25/11:00pm 15.8 11.9 9.6 66 3.2 SSE 20 33 11 18 1022.7 1022.7 0.0
25/10:30pm 16.0 12.0 9.0 63 3.6 SSE 20 28 11 15 1022.6 1022.6 0.0
25/10:00pm 16.3 11.0 8.6 60 3.9 SSE 26 37 14 20 1022.4 1022.4 0.0
25/09:30pm 16.3 12.4 9.3 63 3.6 SSE 20 28 11 15 1022.5 1022.5 0.0
25/09:00pm 16.7 12.3 8.9 60 4.0 SSE 22 32 12 17 1022.3 1022.3 0.0
25/08:30pm 16.9 12.3 9.8 63 3.7 S 24 32 13 17 1022.1 1022.1 0.0
25/08:00pm 17.5 11.6 9.0 57 4.4 S 30 39 16 21 1021.9 1021.9 0.0
25/07:30pm 17.9 11.6 8.8 55 4.7 S 32 41 17 22 1021.7 1021.7 0.0
25/07:00pm 18.6 12.3 8.8 53 5.1 S 32 39 17 21 1021.5 1021.5 0.0
25/06:30pm 18.7 12.8 8.9 53 5.1 S 30 39 16 21 1021.6 1021.6 0.0
25/06:00pm 19.7 13.7 8.8 49 5.7 S 30 39 16 21 1021.7 1021.7 0.0
25/05:30pm 19.7 13.5 8.0 46 6.0 S 30 43 16 23 1021.5 1021.5 0.0
25/05:00pm 19.8 13.1 7.4 44 6.3 S 32 41 17 22 1021.4 1021.4 0.0
25/04:30pm 19.8 13.2 7.7 45 6.2 S 32 43 17 23 1021.5 1021.5 0.0
25/04:00pm 20.6 13.9 7.5 42 6.7 S 32 43 17 23 1021.7 1021.7 0.0
25/03:30pm 20.3 13.7 7.9 44 6.4 S 32 41 17 22 1022.0 1022.0 0.0
25/03:00pm 20.9 14.8 8.2 44 6.6 S 30 43 16 23 1022.1 1022.1 0.0
25/02:30pm 20.4 13.9 8.3 45 6.3 SSW 32 41 17 22 1022.3 1022.3 0.0
25/02:00pm 21.0 14.7 7.6 42 6.9 SSW 30 39 16 21 1022.5 1022.5 0.0
25/01:30pm 20.3 13.7 7.9 44 6.4 SSW 32 39 17 21 1022.6 1022.6 0.0
25/01:00pm 20.7 14.8 7.7 43 6.7 SSW 28 41 15 22 1022.9 1022.9 0.0
25/12:30pm 20.3 14.4 7.6 44 6.5 S 28 37 15 20 1023.0 1023.0 0.0
25/12:00pm 20.9 16.1 7.4 41 6.9 S 22 32 12 17 1023.1 1023.1 0.0
25/11:30am 19.4 14.9 7.1 44 6.2 S 20 32 11 17 1023.2 1023.2 0.0
25/11:00am 19.5 15.1 6.7 43 6.4 S 19 26 10 14 1023.4 1023.4 0.0
25/10:30am 18.9 14.6 7.2 46 5.9 S 19 26 10 14 1023.6 1023.6 0.0
25/10:00am 19.9 15.1 5.4 38 7.1 SE 20 32 11 17 1023.7 1023.7 0.0
25/09:30am 17.9 13.6 5.2 43 6.1 SSE 17 24 9 13 1023.9 1023.9 0.0
25/09:00am 18.3 14.3 4.9 41 6.4 SE 15 20 8 11 1023.9 1023.9 0.0
25/08:30am 17.7 13.5 5.5 44 5.9 ESE 17 22 9 12 1023.8 1023.8 0.0
25/08:00am 16.1 12.6 5.6 49 5.0 E 13 17 7 9 1023.6 1023.6 0.0
25/07:30am 14.1 11.1 6.1 58 3.8 E 11 15 6 8 1023.4 1023.4 0.0

Other Formats:

Comma delimited format used in spreadsheet applications
http://www.bom.gov.au/fwo/IDS60801/IDS60801.94653.axf

JavaScript Object Notation format (JSON) in row-major order
http://www.bom.gov.au/fwo/IDS60801/IDS60801.94653.json